Time;durP1;ratioP1;P1;durP2;ratioP2;P2;SDS_P1;SDS_P2;PMS_P1;PMS_P2;Temp;Humidity;BMP_temperature;BMP_pressure;BME280_temperature;BME280_humidity;BME280_pressure;Samples;Min_cycle;Max_cycle;Signal;HPM_P1;HPM_P2
2021/10/13 09:01:27;;;;;;;25.69;13.97;;;;;;;9.50;62.22;99535.63;378485;141;880405;-61
2021/10/13 09:02:40;;;;;;;28.06;15.99;;;;;;;9.26;62.22;99541.04;368602;144;856643;-60
2021/10/13 09:03:44;;;;;;;25.33;14.86;;;;;;;9.05;63.45;99543.81;367799;144;856536;-57
2021/10/13 09:05:06;;;;;;;29.86;18.14;;;;;;;9.27;62.77;99545.33;367190;144;856509;-58
2021/10/13 09:06:23;;;;;;;33.87;18.34;;;;;;;9.30;62.29;99540.14;365699;144;864072;-59
2021/10/13 09:07:25;;;;;;;28.59;16.99;;;;;;;9.32;62.63;99543.56;366812;144;856741;-59
2021/10/13 09:08:27;;;;;;;31.53;18.38;;;;;;;9.54;62.48;99543.34;367570;144;856224;-59
2021/10/13 09:09:29;;;;;;;31.34;18.93;;;;;;;9.68;61.44;99544.09;368961;144;856291;-59
2021/10/13 09:10:31;;;;;;;27.25;15.33;;;;;;;;;;368400;144;863872;-59
2021/10/13 09:11:35;;;;;;;33.24;18.49;;;;;;;;;;367094;144;856215;-58
2021/10/13 09:12:37;;;;;;;28.60;16.96;;;;;;;;;;368266;144;856468;-59
2021/10/13 09:13:39;;;;;;;27.15;17.46;;;;;;;;;;368139;144;856609;-59
2021/10/13 09:14:40;;;;;;;27.67;17.24;;;;;;;;;;366951;144;857172;-59
2021/10/13 09:15:52;;;;;;;33.39;17.44;;;;;;;;;;368590;144;857495;-60
2021/10/13 09:16:55;;;;;;;27.61;16.97;;;;;;;;;;367441;144;856176;-59
2021/10/13 09:17:58;;;;;;;28.10;16.82;;;;;;;;;;366974;144;856189;-58
2021/10/13 09:19:00;;;;;;;28.12;17.27;;;;;;;;;;365877;144;856234;-59
2021/10/13 09:20:01;;;;;;;29.51;16.99;;;;;;;;;;369660;144;856358;-59
2021/10/13 09:21:03;;;;;;;26.38;17.10;;;;;;;;;;367097;144;856692;-59
2021/10/13 09:22:06;;;;;;;24.37;17.46;;;;;;;;;;366629;144;864280;-59
2021/10/13 09:23:16;;;;;;;27.06;17.28;;;;;;;;;;360220;147;856521;-60
2021/10/13 09:24:18;;;;;;;32.49;16.30;;;;;;;;;;368303;144;864206;-59
2021/10/13 09:25:19;;;;;;;26.64;16.32;;;;;;;;;;365893;144;856250;-59
2021/10/13 09:26:21;;;;;;;26.73;17.65;;;;;;;;;;368103;144;856882;-59
2021/10/13 09:27:26;;;;;;;28.70;16.80;;;;;;;;;;360083;146;863889;-59
2021/10/13 09:28:27;;;;;;;25.29;16.66;;;;;;;;;;361786;144;856736;-59
2021/10/13 09:29:29;;;;;;;26.63;16.13;;;;;;;;;;367067;144;856342;-59
2021/10/13 09:30:35;;;;;;;33.69;16.28;;;;;;;;;;366430;144;863973;-58
2021/10/13 09:31:36;;;;;;;29.03;16.33;;;;;;;;;;367937;144;857006;-59
2021/10/13 09:32:41;;;;;;;25.21;15.84;;;;;;;;;;366119;144;856388;-60
2021/10/13 09:33:56;;;;;;;24.81;15.74;;;;;;;;;;367939;144;863944;-59
2021/10/13 09:34:57;;;;;;;26.81;15.37;;;;;;;;;;366919;144;856190;-59
2021/10/13 09:35:59;;;;;;;23.49;14.84;;;;;;;;;;367620;144;856215;-59
2021/10/13 09:37:01;;;;;;;22.27;14.31;;;;;;;;;;366023;144;864231;-59
2021/10/13 09:38:03;;;;;;;26.57;14.95;;;;;;;;;;367669;144;856416;-59
2021/10/13 09:39:09;;;;;;;25.08;15.01;;;;;;;;;;365948;144;856304;-60
2021/10/13 09:40:11;;;;;;;23.52;15.29;;;;;;;;;;364883;147;856548;-59
2021/10/13 09:41:13;;;;;;;26.93;14.99;;;;;;;;;;365893;144;856762;-60
2021/10/13 09:42:15;;;;;;;22.11;14.56;;;;;;;;;;367205;144;856158;-59
2021/10/13 09:43:29;;;;;;;21.95;15.09;;;;;;;;;;366335;144;856606;-59
2021/10/13 09:44:32;;;;;;;22.56;15.54;;;;;;;;;;367555;145;856200;-59
2021/10/13 09:45:34;;;;;;;22.22;15.05;;;;;;;;;;366797;144;856429;-59
2021/10/13 09:46:37;;;;;;;21.78;14.76;;;;;;;;;;367696;144;856933;-59
2021/10/13 09:47:38;;;;;;;19.02;12.34;;;;;;;;;;366092;144;864525;-59
2021/10/13 09:48:43;;;;;;;25.19;15.07;;;;;;;;;;366746;144;864265;-60
2021/10/13 09:49:47;;;;;;;25.01;15.70;;;;;;;;;;366577;144;864243;-60
2021/10/13 09:50:50;;;;;;;16.97;10.09;;;;;;;;;;365962;144;856463;-60
2021/10/13 09:51:52;;;;;;;23.27;14.81;;;;;;;;;;365908;144;863981;-60
2021/10/13 09:52:53;;;;;;;23.87;15.19;;;;;;;;;;363437;145;856640;-59
2021/10/13 09:53:55;;;;;;;23.59;14.27;;;;;;;;;;364395;144;863877;-60
2021/10/13 09:55:00;;;;;;;25.46;15.24;;;;;;;;;;364964;147;856359;-59
2021/10/13 09:56:02;;;;;;;23.49;14.62;;;;;;;;;;361909;144;856242;-59
2021/10/13 09:57:17;;;;;;;23.21;16.03;;;;;;;;;;367082;144;856486;-59
2021/10/13 09:58:28;;;;;;;24.62;15.73;;;;;;;;;;371083;144;863826;-59
2021/10/13 09:59:30;;;;;;;26.77;16.00;;;;;;;;;;365724;144;856239;-60
2021/10/13 10:00:32;;;;;;;24.87;15.69;;;;;;;;;;366079;144;856568;-59
2021/10/13 10:01:34;;;;;;;21.48;13.64;;;;;;;;;;365214;144;857051;-60
2021/10/13 10:02:37;;;;;;;19.77;13.30;;;;;;;;;;364476;144;863825;-60
2021/10/13 10:03:39;;;;;;;21.74;13.81;;;;;;;;;;363418;144;856529;-60
2021/10/13 10:04:41;;;;;;;22.58;13.45;;;;;;;;;;363499;147;856332;-60
2021/10/13 10:05:42;;;;;;;23.06;14.14;;;;;;;;;;364848;144;856745;-59
2021/10/13 10:06:45;;;;;;;22.72;14.15;;;;;;;;;;363343;144;863724;-60
2021/10/13 10:08:00;;;;;;;20.34;13.74;;;;;;;;;;364912;144;864218;-60
2021/10/13 10:09:04;;;;;;;22.16;11.79;;;;;;;;;;362640;148;862077;-60
2021/10/13 10:10:15;;;;;;;20.04;13.37;;;;;;;;;;363332;145;856393;-60
2021/10/13 10:11:19;;;;;;;21.66;13.89;;;;;;;;;;363437;144;856127;-59
2021/10/13 10:12:20;;;;;;;21.41;13.25;;;;;;;;;;361903;147;856147;-60
2021/10/13 10:13:24;;;;;;;20.04;12.59;;;;;;;;;;363452;144;856820;-60
2021/10/13 10:14:34;;;;;;;20.04;14.02;;;;;;;;;;362810;144;856255;-59
2021/10/13 10:15:36;;;;;;;;;;;;;;;;;;367593;145;855826;-60
2021/10/13 10:16:38;;;;;;;23.09;13.59;;;;;;;;;;364600;144;856448;-60
2021/10/13 10:17:40;;;;;;;21.72;13.27;;;;;;;;;;363421;144;863836;-59
2021/10/13 10:18:42;;;;;;;21.03;13.37;;;;;;;;;;363341;148;863845;-60
2021/10/13 10:19:44;;;;;;;22.27;14.95;;;;;;;;;;364634;144;856361;-60
2021/10/13 10:20:46;;;;;;;22.71;14.51;;;;;;;;;;364509;144;856729;-59
2021/10/13 10:21:58;;;;;;;23.17;14.83;;;;;;;;;;363353;144;856492;-59
2021/10/13 10:22:59;;;;;;;19.88;13.91;;;;;;;;;;363238;148;856667;-59
2021/10/13 10:24:18;;;;;;;20.39;12.99;;;;;;;;;;364164;144;856264;-59
2021/10/13 10:25:19;;;;;;;23.71;15.08;;;;;;;;;;356087;150;862137;-60
2021/10/13 10:26:27;;;;;;;22.08;14.73;;;;;;;;;;353376;151;856292;-60
2021/10/13 10:27:34;;;;;;;23.59;15.11;;;;;;;;;;348220;152;856407;-60
2021/10/13 10:28:53;;;;;;;25.33;15.39;;;;;;;;;;356208;147;856313;-60
2021/10/13 10:30:12;;;;;;;22.95;14.55;;;;;;;;;;349206;150;856241;-60
2021/10/13 10:31:30;;;;;;;24.22;15.84;;;;;;;;;;351631;149;856795;-60
2021/10/13 10:32:32;;;;;;;29.10;15.65;;;;;;;;;;354271;150;856115;-59
2021/10/13 10:33:33;;;;;;;23.26;15.74;;;;;;;;;;352596;151;856420;-59
2021/10/13 10:34:35;;;;;;;27.43;16.36;;;;;;;;;;353912;149;862300;-60
2021/10/13 10:35:42;;;;;;;24.27;16.23;;;;;;;;;;357246;148;856731;-60
2021/10/13 10:36:47;;;;;;;24.35;15.47;;;;;;;;;;352406;151;856413;-59
2021/10/13 10:37:50;;;;;;;27.19;16.26;;;;;;;;;;353046;148;856457;-59
2021/10/13 10:38:51;;;;;;;28.01;16.36;;;;;;;;;;356008;148;856249;-60
2021/10/13 10:39:53;;;;;;;28.97;16.37;;;;;;;;;;357954;148;856172;-59
2021/10/13 10:40:58;;;;;;;24.04;15.58;;;;;;;;;;357507;148;863934;-60
2021/10/13 10:41:59;;;;;;;26.56;16.73;;;;;;;;;;353177;149;856369;-59
2021/10/13 10:43:06;;;;;;;25.95;16.50;;;;;;;;;;349429;151;856494;-60
2021/10/13 10:44:26;;;;;;;27.01;17.63;;;;;;;;;;352789;148;856357;-60
2021/10/13 10:45:29;;;;;;;26.07;16.98;;;;;;;;;;352024;149;856316;-59
2021/10/13 10:46:32;;;;;;;26.17;16.56;;;;;;;;;;352521;150;858007;-59
2021/10/13 10:47:36;;;;;;;29.37;18.14;;;;;;;;;;350134;150;856318;-59
2021/10/13 10:48:44;;;;;;;26.17;17.07;;;;;;;;;;350449;150;856715;-60
2021/10/13 10:49:55;;;;;;;30.27;17.88;;;;;;;;;;355109;150;864881;-59
2021/10/13 10:50:57;;;;;;;26.74;16.27;;;;;;;;;;349392;151;856255;-59
2021/10/13 10:52:02;;;;;;;25.59;16.58;;;;;;;;;;353261;148;856375;-60
2021/10/13 10:53:11;;;;;;;35.37;18.92;;;;;;;;;;355575;149;856160;-59
2021/10/13 10:54:31;;;;;;;29.23;18.56;;;;;;;;;;358305;149;863871;-60
2021/10/13 10:55:36;;;;;;;31.03;17.99;;;;;;;;;;353275;148;856180;-59
2021/10/13 10:56:44;;;;;;;25.00;15.21;;;;;;;;;;351490;148;856840;-60
2021/10/13 10:57:48;;;;;;;29.01;16.88;;;;;;;;;;346266;155;856472;-60
2021/10/13 10:59:00;;;;;;;27.99;17.98;;;;;;;;;;360577;145;856740;-60
2021/10/13 11:00:03;;;;;;;28.17;17.97;;;;;;;;;;369400;144;856154;-59
2021/10/13 11:01:12;;;;;;;25.37;14.99;;;;;;;;;;363432;148;856302;-60
2021/10/13 11:02:15;;;;;;;27.95;17.61;;;;;;;;;;362870;145;856512;-60
2021/10/13 11:03:18;;;;;;;29.16;17.47;;;;;;;;;;364240;144;857341;-60
2021/10/13 11:04:20;;;;;;;28.99;17.95;;;;;;;;;;364811;145;856186;-59
2021/10/13 11:05:22;;;;;;;27.25;17.76;;;;;;;;;;364771;144;856424;-60
2021/10/13 11:06:27;;;;;;;30.90;18.76;;;;;;;;;;363682;144;864513;-59
2021/10/13 11:07:29;;;;;;;29.03;17.95;;;;;;;;;;363435;147;856133;-59
2021/10/13 11:08:30;;;;;;;27.75;17.40;;;;;;;;;;363363;145;856363;-60
2021/10/13 11:09:32;;;;;;;25.39;16.94;;;;;;;;;;363824;144;863900;-60
2021/10/13 11:10:34;;;;;;;32.33;18.98;;;;;;;;;;363870;145;856381;-59
2021/10/13 11:11:39;;;;;;;30.82;18.51;;;;;;;;;;363299;144;856311;-60
2021/10/13 11:12:47;;;;;;;28.04;18.78;;;;;;;;;;364199;144;864705;-59
2021/10/13 11:13:56;;;;;;;27.68;16.79;;;;;;;;;;362842;144;856229;-59
2021/10/13 11:15:08;;;;;;;28.28;18.08;;;;;;;;;;363461;147;856214;-59
2021/10/13 11:16:10;;;;;;;29.99;18.67;;;;;;;;;;362854;145;857271;-59
2021/10/13 11:17:11;;;;;;;30.81;17.17;;;;;;;;;;362793;145;856280;-59
2021/10/13 11:18:14;;;;;;;30.29;17.64;;;;;;;;;;363966;145;863878;-60
2021/10/13 11:19:17;;;;;;;29.30;17.03;;;;;;;;;;367557;144;856418;-60
2021/10/13 11:20:19;;;;;;;35.19;18.43;;;;;;;;;;363392;145;856299;-59
2021/10/13 12:36:10;;;;;;;32.03;16.87;;;;;;;9.35;63.19;99543.53;372009;142;881262;-62
2021/10/13 12:37:12;;;;;;;30.29;17.34;;;;;;;9.15;63.41;99552.33;363753;146;857634;-61
2021/10/13 12:38:15;;;;;;;34.41;18.63;;;;;;;9.18;63.22;99554.88;361982;146;856090;-59
2021/10/13 12:39:23;;;;;;;25.16;15.58;;;;;;;9.26;63.12;99554.83;364898;147;857242;-59
2021/10/13 12:40:25;;;;;;;33.62;18.02;;;;;;;9.35;62.97;99548.70;363652;146;863960;-59
2021/10/13 12:41:37;;;;;;;35.07;19.59;;;;;;;9.32;62.77;99561.65;363980;146;856818;-59
2021/10/13 12:42:39;;;;;;;33.71;18.41;;;;;;;9.27;63.00;99553.95;362370;147;856347;-59
2021/10/13 12:43:43;;;;;;;34.36;18.77;;;;;;;9.41;62.48;99550.38;363586;147;856521;-59
2021/10/13 12:44:45;;;;;;;30.56;17.31;;;;;;;9.47;62.17;99551.16;363350;146;856923;-60
2021/10/13 12:45:46;;;;;;;31.05;18.62;;;;;;;9.62;61.87;99549.33;363625;147;864074;-58
2021/10/13 12:47:09;;;;;;;27.89;17.22;;;;;;;9.74;61.54;99554.36;362986;147;856432;-59
2021/10/13 12:48:13;;;;;;;31.44;17.59;;;;;;;9.62;61.75;99551.91;364399;146;856155;-59
2021/10/13 12:49:15;;;;;;;28.39;17.88;;;;;;;9.85;61.25;99554.23;363462;146;856262;-59
2021/10/13 12:50:18;;;;;;;29.82;18.30;;;;;;;9.99;60.57;99560.97;363405;147;856241;-59
2021/10/13 12:51:20;;;;;;;31.81;16.19;;;;;;;10.01;60.42;99560.09;362522;146;856351;-58
2021/10/13 12:52:24;;;;;;;30.44;16.51;;;;;;;10.14;60.05;99558.23;361833;147;863850;-59
2021/10/13 12:53:26;;;;;;;28.96;17.06;;;;;;;10.06;59.77;99555.72;365170;147;856152;-59
2021/10/13 12:54:30;;;;;;;28.81;17.25;;;;;;;10.02;60.15;99559.22;362862;146;857954;-59
2021/10/13 12:55:31;;;;;;;26.38;16.78;;;;;;;10.18;59.92;99557.31;361067;146;856263;-59
2021/10/13 12:56:33;;;;;;;29.19;17.71;;;;;;;10.33;59.56;99552.81;358222;149;856743;-59
2021/10/13 12:57:35;;;;;;;30.51;17.56;;;;;;;10.44;59.59;99563.91;358056;147;856422;-59
2021/10/13 12:58:37;;;;;;;26.32;16.75;;;;;;;10.44;59.59;99563.91;357156;147;864193;-59
2021/10/13 12:59:39;;;;;;;26.54;17.10;;;;;;;10.66;58.64;99564.47;355461;148;857116;-59
2021/10/13 13:00:41;;;;;;;33.98;17.85;;;;;;;10.70;58.29;99562.67;354251;148;864068;-59
2021/10/13 13:01:44;;;;;;;23.22;16.17;;;;;;;10.75;57.91;99560.88;358007;147;856418;-61
2021/10/13 13:02:46;;;;;;;28.18;17.05;;;;;;;10.79;57.85;99562.54;357789;148;856398;-61
2021/10/13 13:03:48;;;;;;;26.32;16.84;;;;;;;10.86;57.72;99563.31;357564;147;856229;-59
2021/10/13 13:04:50;;;;;;;24.49;17.03;;;;;;;10.82;57.20;99559.06;356861;147;863872;-58
2021/10/13 13:05:52;;;;;;;30.37;16.65;;;;;;;10.84;57.02;99557.30;358689;149;864307;-63
2021/10/13 13:06:55;;;;;;;27.81;16.54;;;;;;;10.68;57.48;99563.59;358416;147;856269;-64
2021/10/13 13:07:57;;;;;;;24.34;13.88;;;;;;;10.70;57.49;99569.61;355968;147;864422;-63
2021/10/13 13:09:00;;;;;;;25.19;15.84;;;;;;;10.71;57.38;99569.56;357644;147;864127;-61
2021/10/13 13:10:01;;;;;;;28.72;15.93;;;;;;;10.71;57.39;99571.31;358376;147;863905;-61
2021/10/13 13:11:03;;;;;;;29.21;17.06;;;;;;;10.70;57.40;99573.03;357781;147;856791;-60
2021/10/13 13:12:05;;;;;;;25.09;16.21;;;;;;;10.58;57.56;99575.80;357380;147;864152;-61
2021/10/13 13:13:07;;;;;;;28.75;16.46;;;;;;;10.61;57.65;99571.45;356372;147;863980;-63
2021/10/13 13:14:08;;;;;;;29.76;17.11;;;;;;;10.65;57.58;99573.12;357226;149;863949;-61
2021/10/13 13:15:10;;;;;;;29.02;16.89;;;;;;;10.52;58.06;99576.73;357061;147;864623;-59
2021/10/13 13:16:13;;;;;;;26.68;17.30;;;;;;;10.57;57.75;99577.52;356976;147;864081;-61
2021/10/13 13:17:15;;;;;;;25.91;16.14;;;;;;;10.59;57.54;99578.35;358594;147;856356;-60
2021/10/13 13:18:17;;;;;;;24.65;14.53;;;;;;;10.65;57.72;99578.30;351087;150;863789;-62
2021/10/13 13:19:18;;;;;;;25.15;16.79;;;;;;;10.66;57.27;99573.95;352882;150;856307;-62
2021/10/13 13:20:21;;;;;;;23.63;16.24;;;;;;;10.65;57.21;99577.42;345930;153;863957;-61
2021/10/13 13:21:23;;;;;;;23.95;14.63;;;;;;;10.64;57.45;99580.89;359193;147;856289;-58
2021/10/13 13:22:25;;;;;;;26.79;16.66;;;;;;;10.64;57.45;99580.89;357634;147;863829;-58
2021/10/13 13:23:26;;;;;;;28.46;17.28;;;;;;;;;;357098;148;864532;-60
2021/10/13 13:24:28;;;;;;;26.94;15.91;;;;;;;;;;357798;147;863895;-58
2021/10/13 13:25:30;;;;;;;29.01;17.01;;;;;;;;;;359091;149;857469;-58
2021/10/13 13:26:32;;;;;;;25.58;16.69;;;;;;;;;;358646;147;856277;-58
2021/10/13 13:27:33;;;;;;;27.35;17.13;;;;;;;;;;352382;151;864488;-55
2021/10/13 13:28:36;;;;;;;24.71;15.34;;;;;;;;;;357601;148;856414;-60
2021/10/13 13:29:38;;;;;;;26.44;16.62;;;;;;;;;;357527;147;856430;-61
2021/10/13 13:30:40;;;;;;;25.60;17.03;;;;;;;;;;358892;148;856354;-63
2021/10/13 13:31:41;;;;;;;27.57;16.76;;;;;;;;;;358213;147;856938;-61
2021/10/13 13:32:43;;;;;;;28.81;16.44;;;;;;;;;;358051;147;857217;-59
2021/10/13 13:33:44;;;;;;;28.74;16.13;;;;;;;;;;356998;147;856286;-60
2021/10/13 13:34:46;;;;;;;28.51;17.00;;;;;;;;;;357814;147;863894;-60
2021/10/13 13:35:48;;;;;;;28.49;16.40;;;;;;;;;;358344;147;863972;-60
2021/10/13 13:36:51;;;;;;;26.79;16.45;;;;;;;;;;356516;147;856906;-60
2021/10/13 13:37:53;;;;;;;27.41;16.31;;;;;;;;;;358273;147;856181;-59
2021/10/13 13:38:54;;;;;;;25.33;15.82;;;;;;;;;;357444;147;856323;-60
2021/10/13 13:39:56;;;;;;;26.29;16.92;;;;;;;;;;357439;147;863863;-60
2021/10/13 13:40:57;;;;;;;29.09;16.98;;;;;;;;;;357591;147;856777;-61
2021/10/13 13:41:59;;;;;;;27.44;17.28;;;;;;;;;;354286;149;863848;-62
2021/10/13 13:43:00;;;;;;;26.34;16.26;;;;;;;;;;357374;147;857061;-61
2021/10/13 13:44:02;;;;;;;24.38;15.22;;;;;;;;;;358258;147;863887;-62
2021/10/13 13:45:04;;;;;;;27.21;17.24;;;;;;;;;;357440;147;856279;-61
2021/10/13 13:46:06;;;;;;;25.21;16.47;;;;;;;;;;358306;147;863929;-62
2021/10/13 13:47:07;;;;;;;25.21;16.27;;;;;;;;;;357352;147;856333;-61
2021/10/13 13:48:09;;;;;;;26.03;17.83;;;;;;;;;;355525;147;863858;-61
2021/10/13 13:49:11;;;;;;;31.29;16.89;;;;;;;;;;358699;147;856194;-61
2021/10/13 13:50:12;;;;;;;25.18;16.40;;;;;;;;;;357125;149;856239;-62
2021/10/13 13:51:14;;;;;;;27.62;16.91;;;;;;;;;;357901;147;864554;-63
2021/10/13 13:52:15;;;;;;;28.23;16.87;;;;;;;;;;357794;147;863924;-61
2021/10/13 13:53:17;;;;;;;26.18;17.34;;;;;;;;;;357616;147;856252;-61
2021/10/13 13:54:18;;;;;;;30.19;16.48;;;;;;;;;;358091;147;856306;-61
2021/10/13 13:55:20;;;;;;;27.18;17.35;;;;;;;;;;357262;148;856774;-63
2021/10/13 13:56:22;;;;;;;27.72;17.04;;;;;;;;;;357518;147;856630;-63
2021/10/13 13:57:23;;;;;;;26.80;17.14;;;;;;;;;;358011;147;863962;-62
2021/10/13 13:58:25;;;;;;;27.59;16.90;;;;;;;;;;359159;147;856623;-63
2021/10/13 13:59:26;;;;;;;25.69;15.90;;;;;;;;;;358656;150;864440;-63
2021/10/13 14:00:28;;;;;;;25.73;15.41;;;;;;;;;;357767;147;856223;-64
2021/10/13 14:01:30;;;;;;;25.26;15.79;;;;;;;;;;352904;149;856543;-63
2021/10/13 14:02:32;;;;;;;30.33;16.31;;;;;;;;;;358921;148;856289;-62
2021/10/13 14:03:33;;;;;;;23.75;14.51;;;;;;;;;;357588;149;856359;-62
2021/10/13 14:04:35;;;;;;;27.19;15.46;;;;;;;;;;357059;147;856755;-63
2021/10/13 14:05:36;;;;;;;27.79;14.97;;;;;;;;;;357911;147;856527;-64
2021/10/13 14:06:38;;;;;;;29.41;16.02;;;;;;;;;;356512;147;856902;-63
2021/10/13 14:07:39;;;;;;;26.39;16.26;;;;;;;;;;357173;148;864404;-63
2021/10/13 14:08:42;;;;;;;26.79;16.54;;;;;;;;;;356729;147;857044;-63
2021/10/13 14:09:44;;;;;;;28.31;15.09;;;;;;;;;;350377;150;856359;-62
2021/10/13 14:10:45;;;;;;;31.09;16.08;;;;;;;;;;349006;151;857010;-64
2021/10/13 14:11:47;;;;;;;29.08;16.35;;;;;;;;;;356480;147;858770;-61
2021/10/13 14:12:49;;;;;;;25.70;16.54;;;;;;;;;;351136;151;864621;-64
2021/10/13 14:13:50;;;;;;;25.87;16.27;;;;;;;;;;358990;150;856179;-63
2021/10/13 14:14:52;;;;;;;26.59;17.15;;;;;;;;;;358073;147;856242;-63
2021/10/13 14:15:53;;;;;;;25.09;16.73;;;;;;;;;;358219;147;856277;-62
2021/10/13 14:16:55;;;;;;;23.27;15.99;;;;;;;;;;359309;148;856175;-60
2021/10/13 14:17:56;;;;;;;26.94;16.51;;;;;;;;;;358389;148;856222;-64
2021/10/13 14:18:58;;;;;;;26.08;15.56;;;;;;;;;;356322;147;856595;-63
2021/10/13 14:19:59;;;;;;;28.77;16.57;;;;;;;;;;356217;147;856168;-62
2021/10/13 14:21:01;;;;;;;26.44;15.32;;;;;;;;;;356906;150;863944;-60
2021/10/13 14:22:03;;;;;;;24.91;15.26;;;;;;;;;;358070;147;858358;-60
2021/10/13 14:23:04;;;;;;;23.70;15.54;;;;;;;;;;352569;150;860825;-62
2021/10/13 14:24:06;;;;;;;24.06;15.26;;;;;;;;;;352633;151;856811;-63
2021/10/13 14:25:07;;;;;;;26.45;15.89;;;;;;;;;;359175;147;856234;-62
2021/10/13 14:26:09;;;;;;;23.05;13.78;;;;;;;;;;358128;147;856307;-62
2021/10/13 14:27:11;;;;;;;27.61;16.87;;;;;;;;;;358063;147;856224;-63
2021/10/13 14:28:12;;;;;;;22.95;15.01;;;;;;;;;;357848;149;863769;-62
2021/10/13 14:29:15;;;;;;;24.69;15.19;;;;;;;;;;352355;149;856539;-62
2021/10/13 14:30:17;;;;;;;26.36;16.17;;;;;;;;;;357335;147;856593;-61
2021/10/13 14:31:19;;;;;;;25.44;15.22;;;;;;;;;;359262;147;856816;-61
2021/10/13 14:32:20;;;;;;;23.99;15.52;;;;;;;;;;357948;147;863924;-61
2021/10/13 14:33:22;;;;;;;24.81;14.03;;;;;;;;;;357261;147;857023;-61
2021/10/13 14:34:24;;;;;;;25.51;15.94;;;;;;;;;;358636;147;856545;-61
2021/10/13 14:35:25;;;;;;;28.05;15.74;;;;;;;;;;352786;149;856531;-61
2021/10/13 14:36:28;;;;;;;28.41;16.21;;;;;;;;;;359151;147;863781;-60
2021/10/13 14:37:29;;;;;;;27.64;17.42;;;;;;;;;;358786;147;857254;-61
2021/10/13 14:38:31;;;;;;;30.07;15.49;;;;;;;;;;359362;147;856553;-61
2021/10/13 14:39:32;;;;;;;26.55;16.84;;;;;;;;;;358424;147;856305;-61
2021/10/13 14:40:35;;;;;;;31.29;16.43;;;;;;;;;;359584;149;863970;-61
2021/10/13 14:41:36;;;;;;;24.66;15.90;;;;;;;;;;350304;151;856641;-61
2021/10/13 14:42:39;;;;;;;29.68;16.68;;;;;;;;;;350882;151;863960;-62
2021/10/13 14:43:40;;;;;;;25.13;14.38;;;;;;;;;;358322;147;864637;-62
2021/10/13 14:44:42;;;;;;;24.19;15.64;;;;;;;;;;359650;148;857145;-63
2021/10/13 14:45:44;;;;;;;20.62;14.16;;;;;;;;;;357172;147;863835;-62
2021/10/13 14:46:46;;;;;;;26.99;15.95;;;;;;;;;;357812;148;856622;-61
2021/10/13 14:47:48;;;;;;;26.55;16.18;;;;;;;;;;360369;148;856426;-62
2021/10/13 14:48:49;;;;;;;25.99;15.81;;;;;;;;;;358480;149;856463;-62
2021/10/13 14:49:51;;;;;;;26.91;15.69;;;;;;;;;;359119;147;856397;-61
2021/10/13 14:50:53;;;;;;;23.56;14.91;;;;;;;;;;359425;147;863935;-61
2021/10/13 14:51:56;;;;;;;24.53;15.46;;;;;;;;;;358096;147;856638;-61
2021/10/13 14:52:57;;;;;;;24.65;16.37;;;;;;;;;;357419;148;863920;-62
2021/10/13 14:54:00;;;;;;;23.56;14.43;;;;;;;;;;357651;149;856420;-62
2021/10/13 14:55:01;;;;;;;28.21;16.49;;;;;;;;;;358499;147;856475;-60
2021/10/13 14:56:03;;;;;;;25.96;14.65;;;;;;;;;;359139;148;856304;-62
2021/10/13 14:57:05;;;;;;;26.57;15.51;;;;;;;;;;358005;147;864037;-62
2021/10/13 14:58:07;;;;;;;27.82;15.45;;;;;;;;;;356570;147;863974;-62
2021/10/13 14:59:08;;;;;;;27.34;15.09;;;;;;;;;;357441;147;856983;-62
2021/10/13 15:00:10;;;;;;;28.05;15.19;;;;;;;;;;357693;149;856700;-62
2021/10/13 15:01:12;;;;;;;28.55;16.21;;;;;;;;;;357231;147;864044;-62
2021/10/13 15:02:14;;;;;;;29.49;16.29;;;;;;;;;;359467;147;856201;-61
2021/10/13 15:03:15;;;;;;;25.56;15.61;;;;;;;;;;353678;150;863815;-63
2021/10/13 15:04:17;;;;;;;28.15;16.26;;;;;;;;;;352993;149;856181;-64
2021/10/13 15:05:19;;;;;;;25.08;15.95;;;;;;;;;;353479;150;856547;-62
2021/10/13 15:06:20;;;;;;;26.32;16.16;;;;;;;;;;352809;151;856347;-63
2021/10/13 15:07:22;;;;;;;26.05;16.41;;;;;;;;;;352054;149;863925;-62
2021/10/13 15:08:23;;;;;;;24.84;16.10;;;;;;;;;;353212;150;863792;-62
2021/10/13 15:09:25;;;;;;;25.42;15.94;;;;;;;;;;352389;151;856237;-62
2021/10/13 15:10:27;;;;;;;27.92;15.87;;;;;;;;;;352224;150;856280;-62
2021/10/13 15:11:29;;;;;;;26.99;16.87;;;;;;;;;;351250;150;856249;-62
2021/10/13 15:12:31;;;;;;;27.76;17.21;;;;;;;;;;350531;151;856228;-62
2021/10/13 15:13:32;;;;;;;28.83;17.59;;;;;;;;;;359930;149;864601;-62
2021/10/13 15:14:37;;;;;;;26.03;14.23;;;;;;;;;;351908;149;856436;-61
2021/10/13 15:15:37;;;;;;;28.16;16.29;;;;;;;;;;351705;150;856389;-62
2021/10/13 15:16:39;;;;;;;25.78;16.24;;;;;;;;;;353126;151;856460;-62
2021/10/13 15:17:41;;;;;;;27.99;16.79;;;;;;;;;;352581;150;864677;-62
2021/10/13 15:18:43;;;;;;;29.55;16.35;;;;;;;;;;350372;149;856475;-62
2021/10/13 15:19:45;;;;;;;27.31;16.70;;;;;;;;;;353167;150;856158;-62
2021/10/13 15:20:46;;;;;;;32.44;17.69;;;;;;;;;;350055;150;856271;-62
2021/10/13 15:21:48;;;;;;;27.82;16.76;;;;;;;;;;351704;149;863974;-62
2021/10/13 15:22:50;;;;;;;27.47;15.41;;;;;;;;;;352909;151;856687;-62
2021/10/13 15:23:51;;;;;;;23.77;14.73;;;;;;;;;;351619;152;856728;-62
2021/10/13 15:24:53;;;;;;;28.84;16.91;;;;;;;;;;345192;152;856559;-62
2021/10/13 15:25:54;;;;;;;26.46;15.82;;;;;;;;;;345775;152;861406;-62
2021/10/13 15:26:56;;;;;;;28.11;16.83;;;;;;;;;;348529;151;863856;-63
2021/10/13 15:27:58;;;;;;;26.60;16.92;;;;;;;;;;350169;150;856436;-62
2021/10/13 15:28:59;;;;;;;27.15;17.21;;;;;;;;;;351085;150;856154;-62
2021/10/13 15:30:01;;;;;;;22.84;14.78;;;;;;;;;;349790;152;856338;-62
2021/10/13 15:31:03;;;;;;;27.96;16.90;;;;;;;;;;345998;152;856440;-62
2021/10/13 15:32:04;;;;;;;26.75;16.41;;;;;;;;;;350569;150;864816;-62
2021/10/13 15:33:07;;;;;;;29.11;17.90;;;;;;;;;;352380;151;856619;-62
2021/10/13 15:34:09;;;;;;;27.73;17.01;;;;;;;;;;349504;150;864063;-62
2021/10/13 15:35:10;;;;;;;28.21;15.95;;;;;;;;;;351920;150;864127;-62
2021/10/13 15:36:12;;;;;;;26.37;15.29;;;;;;;;;;351992;149;863869;-61
2021/10/13 15:37:14;;;;;;;28.53;16.05;;;;;;;;;;351953;151;863772;-61
2021/10/13 15:38:15;;;;;;;27.11;16.95;;;;;;;;;;352459;150;863857;-61
2021/10/13 15:39:17;;;;;;;30.25;16.66;;;;;;;;;;354194;148;856468;-62
2021/10/13 15:40:19;;;;;;;27.36;15.47;;;;;;;;;;354778;150;856678;-62
2021/10/13 15:41:20;;;;;;;25.69;15.82;;;;;;;;;;350699;151;856996;-61
2021/10/13 15:42:22;;;;;;;26.24;14.44;;;;;;;;;;353212;150;864534;-62
2021/10/13 15:43:23;;;;;;;28.70;16.61;;;;;;;;;;351308;148;863898;-61
2021/10/13 15:44:25;;;;;;;26.28;15.70;;;;;;;;;;353906;151;863868;-61
2021/10/13 15:45:27;;;;;;;25.39;15.41;;;;;;;;;;354965;150;863897;-61
2021/10/13 15:46:29;;;;;;;26.34;16.69;;;;;;;;;;353393;148;856471;-61
2021/10/13 15:47:32;;;;;;;25.64;14.67;;;;;;;;;;351292;151;864372;-61
2021/10/13 15:48:33;;;;;;;23.27;14.27;;;;;;;;;;354313;151;856201;-61
2021/10/13 15:49:35;;;;;;;28.67;15.91;;;;;;;;;;354598;148;856470;-61
2021/10/13 15:50:37;;;;;;;27.51;16.55;;;;;;;;;;353764;150;857232;-61
2021/10/13 15:51:39;;;;;;;28.63;15.86;;;;;;;;;;355065;151;857045;-61
2021/10/13 15:52:40;;;;;;;27.86;14.99;;;;;;;;;;352911;150;856928;-61
2021/10/13 15:53:42;;;;;;;29.92;16.01;;;;;;;;;;353302;148;864828;-61
2021/10/13 15:54:43;;;;;;;29.29;15.86;;;;;;;;;;351324;151;857008;-62
2021/10/13 15:55:45;;;;;;;27.13;14.99;;;;;;;;;;352981;150;856878;-62
2021/10/13 15:56:47;;;;;;;26.97;16.70;;;;;;;;;;354306;149;856416;-61
2021/10/13 15:57:48;;;;;;;24.94;14.03;;;;;;;;;;354217;151;863864;-61
2021/10/13 15:58:50;;;;;;;28.94;16.31;;;;;;;;;;352970;151;864352;-62
2021/10/13 15:59:51;;;;;;;28.00;16.98;;;;;;;;;;354281;150;856855;-61
2021/10/13 16:00:53;;;;;;;28.31;17.03;;;;;;;;;;353263;148;857770;-61
2021/10/13 16:01:55;;;;;;;35.19;16.82;;;;;;;;;;353810;151;856769;-61
2021/10/13 16:02:56;;;;;;;26.99;16.98;;;;;;;;;;353039;151;856341;-61
2021/10/13 16:04:00;;;;;;;28.23;16.88;;;;;;;;;;352613;150;863987;-60